sensor_id;sensor_type;location;lat;lon;timestamp;pressure;altitude;pressure_sealevel;temperature;humidity
22605;BME280;11469;49.024;8.246;2022-08-27T00:00:47;100177.44;;;20.45;100.00
22605;BME280;11469;49.024;8.246;2022-08-27T00:03:13;100192.84;;;20.48;100.00
22605;BME280;11469;49.024;8.246;2022-08-27T00:05:39;100181.38;;;20.51;100.00
22605;BME280;11469;49.024;8.246;2022-08-27T00:08:06;100175.63;;;20.55;100.00
22605;BME280;11469;49.024;8.246;2022-08-27T00:10:32;100174.25;;;20.63;100.00
22605;BME280;11469;49.024;8.246;2022-08-27T00:12:58;100181.13;;;20.66;100.00
22605;BME280;11469;49.024;8.246;2022-08-27T00:15:24;100168.94;;;20.65;100.00
22605;BME280;11469;49.024;8.246;2022-08-27T00:17:50;100162.44;;;20.65;100.00
22605;BME280;11469;49.024;8.246;2022-08-27T00:20:18;100164.47;;;20.64;100.00
22605;BME280;11469;49.024;8.246;2022-08-27T00:22:44;100163.31;;;20.62;100.00
22605;BME280;11469;49.024;8.246;2022-08-27T00:25:10;100160.03;;;20.63;100.00
22605;BME280;11469;49.024;8.246;2022-08-27T00:27:37;100155.94;;;20.64;100.00
22605;BME280;11469;49.024;8.246;2022-08-27T00:30:09;100151.06;;;20.65;100.00
22605;BME280;11469;49.024;8.246;2022-08-27T00:32:35;100152.66;;;20.66;100.00
22605;BME280;11469;49.024;8.246;2022-08-27T00:35:00;100158.84;;;20.61;100.00
22605;BME280;11469;49.024;8.246;2022-08-27T00:37:26;100146.22;;;20.62;100.00
22605;BME280;11469;49.024;8.246;2022-08-27T00:39:51;100151.63;;;20.56;100.00
22605;BME280;11469;49.024;8.246;2022-08-27T00:42:17;100141.09;;;20.53;100.00
22605;BME280;11469;49.024;8.246;2022-08-27T00:44:43;100144.44;;;20.48;100.00
22605;BME280;11469;49.024;8.246;2022-08-27T00:47:16;100144.88;;;20.46;100.00
22605;BME280;11469;49.024;8.246;2022-08-27T00:49:46;100142.41;;;20.48;100.00
22605;BME280;11469;49.024;8.246;2022-08-27T00:52:28;100136.66;;;20.52;100.00
22605;BME280;11469;49.024;8.246;2022-08-27T00:55:02;100144.75;;;20.53;100.00
22605;BME280;11469;49.024;8.246;2022-08-27T00:57:29;100148.41;;;20.54;100.00
22605;BME280;11469;49.024;8.246;2022-08-27T00:59:54;100135.41;;;20.53;100.00
22605;BME280;11469;49.024;8.246;2022-08-27T01:02:20;100143.50;;;20.54;100.00
22605;BME280;11469;49.024;8.246;2022-08-27T01:04:52;100139.00;;;20.57;100.00
22605;BME280;11469;49.024;8.246;2022-08-27T01:07:19;100132.06;;;20.58;100.00
22605;BME280;11469;49.024;8.246;2022-08-27T01:09:47;100131.53;;;20.43;100.00
22605;BME280;11469;49.024;8.246;2022-08-27T01:12:14;100129.47;;;20.44;100.00
22605;BME280;11469;49.024;8.246;2022-08-27T01:14:40;100127.00;;;20.46;100.00
22605;BME280;11469;49.024;8.246;2022-08-27T01:17:08;100122.97;;;20.43;100.00
22605;BME280;11469;49.024;8.246;2022-08-27T01:25:05;100122.50;;;20.25;100.00
22605;BME280;11469;49.024;8.246;2022-08-27T01:27:30;100123.38;;;20.22;100.00
22605;BME280;11469;49.024;8.246;2022-08-27T01:29:57;100118.63;;;20.15;100.00
22605;BME280;11469;49.024;8.246;2022-08-27T01:32:26;100117.00;;;20.14;100.00
22605;BME280;11469;49.024;8.246;2022-08-27T01:34:52;100116.31;;;20.07;100.00
22605;BME280;11469;49.024;8.246;2022-08-27T01:37:19;100122.75;;;20.11;100.00
22605;BME280;11469;49.024;8.246;2022-08-27T01:39:45;100124.00;;;20.10;100.00
22605;BME280;11469;49.024;8.246;2022-08-27T01:42:15;100127.63;;;20.10;100.00
22605;BME280;11469;49.024;8.246;2022-08-27T01:44:51;100122.81;;;20.07;100.00
22605;BME280;11469;49.024;8.246;2022-08-27T01:47:19;100124.19;;;19.99;100.00
22605;BME280;11469;49.024;8.246;2022-08-27T01:49:45;100134.31;;;20.00;100.00
22605;BME280;11469;49.024;8.246;2022-08-27T01:52:12;100131.66;;;19.89;100.00
22605;BME280;11469;49.024;8.246;2022-08-27T01:54:38;100136.84;;;19.95;100.00
22605;BME280;11469;49.024;8.246;2022-08-27T01:57:04;100133.31;;;19.87;100.00
22605;BME280;11469;49.024;8.246;2022-08-27T01:59:29;100137.06;;;19.84;100.00
22605;BME280;11469;49.024;8.246;2022-08-27T02:01:55;100132.22;;;19.81;100.00
22605;BME280;11469;49.024;8.246;2022-08-27T02:04:22;100131.47;;;19.77;100.00
22605;BME280;11469;49.024;8.246;2022-08-27T02:06:47;100133.94;;;19.75;100.00
22605;BME280;11469;49.024;8.246;2022-08-27T02:09:12;100134.75;;;19.75;100.00
22605;BME280;11469;49.024;8.246;2022-08-27T02:11:38;100132.38;;;19.70;100.00
22605;BME280;11469;49.024;8.246;2022-08-27T02:14:04;100136.47;;;19.69;100.00
22605;BME280;11469;49.024;8.246;2022-08-27T02:16:29;100129.53;;;19.70;100.00
22605;BME280;11469;49.024;8.246;2022-08-27T02:18:57;100134.81;;;19.72;100.00
22605;BME280;11469;49.024;8.246;2022-08-27T02:21:22;100130.34;;;19.71;100.00
22605;BME280;11469;49.024;8.246;2022-08-27T02:23:48;100130.72;;;19.73;100.00
22605;BME280;11469;49.024;8.246;2022-08-27T02:26:13;100132.34;;;19.74;100.00
22605;BME280;11469;49.024;8.246;2022-08-27T02:28:39;100124.59;;;19.74;100.00
22605;BME280;11469;49.024;8.246;2022-08-27T02:31:04;100119.25;;;19.80;100.00
22605;BME280;11469;49.024;8.246;2022-08-27T02:33:29;100125.41;;;19.75;100.00
22605;BME280;11469;49.024;8.246;2022-08-27T02:35:57;100125.84;;;19.73;100.00
22605;BME280;11469;49.024;8.246;2022-08-27T02:38:23;100125.47;;;19.71;100.00
22605;BME280;11469;49.024;8.246;2022-08-27T02:40:48;100133.56;;;19.73;100.00
22605;BME280;11469;49.024;8.246;2022-08-27T02:43:14;100132.34;;;19.74;100.00
22605;BME280;11469;49.024;8.246;2022-08-27T02:45:39;100136.41;;;19.73;100.00
22605;BME280;11469;49.024;8.246;2022-08-27T02:48:05;100136.41;;;19.73;100.00
22605;BME280;11469;49.024;8.246;2022-08-27T02:50:32;100129.88;;;19.76;100.00
22605;BME280;11469;49.024;8.246;2022-08-27T02:52:59;100127.34;;;19.81;100.00
22605;BME280;11469;49.024;8.246;2022-08-27T02:55:26;100128.94;;;19.82;100.00
22605;BME280;11469;49.024;8.246;2022-08-27T02:57:52;100133.47;;;19.80;100.00
22605;BME280;11469;49.024;8.246;2022-08-27T03:00:20;100126.16;;;19.79;100.00
22605;BME280;11469;49.024;8.246;2022-08-27T03:02:47;100125.31;;;19.82;100.00
22605;BME280;11469;49.024;8.246;2022-08-27T03:05:14;100123.63;;;19.84;100.00
22605;BME280;11469;49.024;8.246;2022-08-27T03:07:40;100125.59;;;19.87;100.00
22605;BME280;11469;49.024;8.246;2022-08-27T03:10:07;100119.09;;;19.87;100.00
22605;BME280;11469;49.024;8.246;2022-08-27T03:12:33;100125.69;;;19.84;100.00
22605;BME280;11469;49.024;8.246;2022-08-27T03:15:01;100122.03;;;19.83;100.00
22605;BME280;11469;49.024;8.246;2022-08-27T03:17:27;100129.38;;;19.81;100.00
22605;BME280;11469;49.024;8.246;2022-08-27T03:20:11;100129.81;;;19.79;100.00
22605;BME280;11469;49.024;8.246;2022-08-27T03:22:37;100126.53;;;19.81;100.00
22605;BME280;11469;49.024;8.246;2022-08-27T03:25:03;100119.25;;;19.80;100.00
22605;BME280;11469;49.024;8.246;2022-08-27T03:27:29;100113.50;;;19.83;100.00
22605;BME280;11469;49.024;8.246;2022-08-27T03:29:54;100121.72;;;19.78;100.00
22605;BME280;11469;49.024;8.246;2022-08-27T03:32:19;100125.41;;;19.75;100.00
22605;BME280;11469;49.024;8.246;2022-08-27T03:34:45;100129.06;;;19.75;100.00
22605;BME280;11469;49.024;8.246;2022-08-27T03:37:10;100132.34;;;19.74;100.00
22605;BME280;11469;49.024;8.246;2022-08-27T03:39:36;100137.59;;;19.75;100.00
22605;BME280;11469;49.024;8.246;2022-08-27T03:42:01;100128.25;;;19.75;100.00
22605;BME280;11469;49.024;8.246;2022-08-27T03:44:27;100129.00;;;19.79;100.00
22605;BME280;11469;49.024;8.246;2022-08-27T03:46:53;100130.72;;;19.73;100.00
22605;BME280;11469;49.024;8.246;2022-08-27T03:49:20;100137.66;;;19.72;100.00
22605;BME280;11469;49.024;8.246;2022-08-27T03:51:47;100138.44;;;19.72;100.00
22605;BME280;11469;49.024;8.246;2022-08-27T03:54:13;100136.34;;;19.76;100.00
22605;BME280;11469;49.024;8.246;2022-08-27T03:56:39;100132.72;;;19.76;100.00
22605;BME280;11469;49.024;8.246;2022-08-27T03:59:06;100129.50;;;19.74;100.00
22605;BME280;11469;49.024;8.246;2022-08-27T04:01:33;100132.34;;;19.74;100.00
22605;BME280;11469;49.024;8.246;2022-08-27T04:03:59;100129.13;;;19.72;100.00
22605;BME280;11469;49.024;8.246;2022-08-27T04:06:24;100122.56;;;19.75;100.00
22605;BME280;11469;49.024;8.246;2022-08-27T04:08:50;100126.22;;;19.75;100.00
22605;BME280;11469;49.024;8.246;2022-08-27T04:11:15;100128.69;;;19.73;100.00
22605;BME280;11469;49.024;8.246;2022-08-27T04:13:40;100124.94;;;19.80;100.00
22605;BME280;11469;49.024;8.246;2022-08-27T04:16:06;100121.72;;;19.78;100.00
22605;BME280;11469;49.024;8.246;2022-08-27T04:18:32;100120.91;;;19.77;100.00
22605;BME280;11469;49.024;8.246;2022-08-27T04:21:06;100124.94;;;19.80;100.00
22605;BME280;11469;49.024;8.246;2022-08-27T04:23:31;100126.09;;;19.82;100.00
22605;BME280;11469;49.024;8.246;2022-08-27T04:25:57;100126.53;;;19.81;100.00
22605;BME280;11469;49.024;8.246;2022-08-27T04:28:22;100130.63;;;19.80;100.00
22605;BME280;11469;49.024;8.246;2022-08-27T04:30:48;100127.34;;;19.81;100.00
22605;BME280;11469;49.024;8.246;2022-08-27T04:33:14;100136.25;;;19.83;100.00
22605;BME280;11469;49.024;8.246;2022-08-27T04:35:40;100130.25;;;19.78;100.00
22605;BME280;11469;49.024;8.246;2022-08-27T04:38:06;100133.88;;;19.78;100.00
22605;BME280;11469;49.024;8.246;2022-08-27T04:40:32;100137.91;;;19.81;100.00
22605;BME280;11469;49.024;8.246;2022-08-27T04:43:16;100137.06;;;19.84;100.00
22605;BME280;11469;49.024;8.246;2022-08-27T04:45:46;100131.78;;;19.82;100.00
22605;BME280;11469;49.024;8.246;2022-08-27T04:48:13;100133.03;;;19.81;100.00
22605;BME280;11469;49.024;8.246;2022-08-27T04:50:45;100139.53;;;19.82;100.00
22605;BME280;11469;49.024;8.246;2022-08-27T04:53:11;100136.69;;;19.82;100.00
22605;BME280;11469;49.024;8.246;2022-08-27T04:55:41;100135.44;;;19.83;100.00
22605;BME280;11469;49.024;8.246;2022-08-27T04:58:08;100131.38;;;19.84;100.00
22605;BME280;11469;49.024;8.246;2022-08-27T05:00:33;100129.31;;;19.84;100.00
22605;BME280;11469;49.024;8.246;2022-08-27T05:02:58;100130.91;;;19.85;100.00
22605;BME280;11469;49.024;8.246;2022-08-27T05:05:26;100139.38;;;19.89;100.00
22605;BME280;11469;49.024;8.246;2022-08-27T05:07:52;100136.97;;;19.87;100.00
22605;BME280;11469;49.024;8.246;2022-08-27T05:10:18;100144.19;;;19.92;100.00
22605;BME280;11469;49.024;8.246;2022-08-27T05:12:43;100143.88;;;19.86;100.00
22605;BME280;11469;49.024;8.246;2022-08-27T05:15:09;100148.03;;;19.82;100.00
22605;BME280;11469;49.024;8.246;2022-08-27T05:17:34;100149.22;;;19.84;100.00
22605;BME280;11469;49.024;8.246;2022-08-27T05:20:00;100149.66;;;19.83;100.00
22605;BME280;11469;49.024;8.246;2022-08-27T05:22:25;100149.56;;;19.86;100.00
22605;BME280;11469;49.024;8.246;2022-08-27T05:24:51;100140.59;;;19.88;100.00
22605;BME280;11469;49.024;8.246;2022-08-27T05:27:17;100151.13;;;19.91;100.00
22605;BME280;11469;49.024;8.246;2022-08-27T05:29:42;100147.91;;;19.89;100.00
22605;BME280;11469;49.024;8.246;2022-08-27T05:32:07;100145.94;;;19.86;100.00
22605;BME280;11469;49.024;8.246;2022-08-27T05:34:33;100152.78;;;19.88;100.00
22605;BME280;11469;49.024;8.246;2022-08-27T05:36:59;100152.50;;;19.83;100.00
22605;BME280;11469;49.024;8.246;2022-08-27T05:39:24;100144.50;;;19.74;100.00
22605;BME280;11469;49.024;8.246;2022-08-27T05:41:49;100151.44;;;19.73;100.00
22605;BME280;11469;49.024;8.246;2022-08-27T05:44:16;100145.31;;;19.75;100.00
22605;BME280;11469;49.024;8.246;2022-08-27T05:46:42;100144.03;;;19.79;100.00
22605;BME280;11469;49.024;8.246;2022-08-27T05:49:07;100150.88;;;19.82;100.00
22605;BME280;11469;49.024;8.246;2022-08-27T05:51:35;100148.84;;;19.82;100.00
22605;BME280;11469;49.024;8.246;2022-08-27T05:54:04;100153.38;;;19.80;100.00
22605;BME280;11469;49.024;8.246;2022-08-27T05:56:33;100150.00;;;19.85;100.00
22605;BME280;11469;49.024;8.246;2022-08-27T05:58:59;100148.34;;;19.87;100.00
22605;BME280;11469;49.024;8.246;2022-08-27T06:01:46;100150.25;;;19.94;100.00
22605;BME280;11469;49.024;8.246;2022-08-27T06:04:13;100149.88;;;19.92;100.00
22605;BME280;11469;49.024;8.246;2022-08-27T06:06:40;100151.44;;;19.97;100.00
22605;BME280;11469;49.024;8.246;2022-08-27T06:09:08;100143.22;;;20.02;100.00
22605;BME280;11469;49.024;8.246;2022-08-27T06:11:34;100149.22;;;20.08;100.00
22605;BME280;11469;49.024;8.246;2022-08-27T06:13:59;100149.16;;;20.11;100.00
22605;BME280;11469;49.024;8.246;2022-08-27T06:16:25;100149.91;;;20.15;100.00
22605;BME280;11469;49.024;8.246;2022-08-27T06:18:51;100148.66;;;20.16;100.00
22605;BME280;11469;49.024;8.246;2022-08-27T06:21:18;100149.47;;;20.17;100.00
22605;BME280;11469;49.024;8.246;2022-08-27T06:23:44;100151.94;;;20.15;100.00
22605;BME280;11469;49.024;8.246;2022-08-27T06:26:16;100144.97;;;20.19;100.00
22605;BME280;11469;49.024;8.246;2022-08-27T06:28:42;100154.28;;;20.20;100.00
22605;BME280;11469;49.024;8.246;2022-08-27T06:31:20;100153.88;;;20.21;100.00
22605;BME280;11469;49.024;8.246;2022-08-27T06:33:47;100157.56;;;20.18;100.00
22605;BME280;11469;49.024;8.246;2022-08-27T06:36:17;100150.66;;;20.19;100.00
22605;BME280;11469;49.024;8.246;2022-08-27T06:38:43;100160.78;;;20.20;100.00
22605;BME280;11469;49.024;8.246;2022-08-27T06:41:09;100155.47;;;20.23;100.00
22605;BME280;11469;49.024;8.246;2022-08-27T06:43:37;100157.50;;;20.22;100.00
22605;BME280;11469;49.024;8.246;2022-08-27T06:46:05;100157.81;;;20.28;100.00
22605;BME280;11469;49.024;8.246;2022-08-27T06:48:30;100162.66;;;20.31;100.00
22605;BME280;11469;49.024;8.246;2022-08-27T06:50:56;100154.44;;;20.33;100.00
22605;BME280;11469;49.024;8.246;2022-08-27T06:53:21;100160.50;;;20.35;100.00
22605;BME280;11469;49.024;8.246;2022-08-27T06:55:48;100161.41;;;20.32;100.00
22605;BME280;11469;49.024;8.246;2022-08-27T06:58:14;100162.19;;;20.32;100.00
22605;BME280;11469;49.024;8.246;2022-08-27T07:00:41;100164.59;;;20.34;100.00
22605;BME280;11469;49.024;8.246;2022-08-27T07:03:07;100166.97;;;20.39;100.00
22605;BME280;11469;49.024;8.246;2022-08-27T07:05:35;100179.59;;;20.38;100.00
22605;BME280;11469;49.024;8.246;2022-08-27T07:08:01;100171.91;;;20.35;100.00
22605;BME280;11469;49.024;8.246;2022-08-27T07:10:27;100172.78;;;20.32;100.00
22605;BME280;11469;49.024;8.246;2022-08-27T07:12:53;100179.72;;;20.31;100.00
22605;BME280;11469;49.024;8.246;2022-08-27T07:15:18;100173.72;;;20.25;100.00
22605;BME280;11469;49.024;8.246;2022-08-27T07:17:44;100172.41;;;20.30;100.00
22605;BME280;11469;49.024;8.246;2022-08-27T07:20:13;100170.00;;;20.28;100.00
22605;BME280;11469;49.024;8.246;2022-08-27T07:22:42;100176.94;;;20.27;100.00
22605;BME280;11469;49.024;8.246;2022-08-27T07:25:10;100178.19;;;20.26;100.00
22605;BME280;11469;49.024;8.246;2022-08-27T07:27:38;100179.84;;;20.24;100.00
22605;BME280;11469;49.024;8.246;2022-08-27T07:30:06;100182.19;;;20.29;100.00
22605;BME280;11469;49.024;8.246;2022-08-27T07:32:32;100189.88;;;20.32;100.00
22605;BME280;11469;49.024;8.246;2022-08-27T07:34:58;100186.22;;;20.31;100.00
22605;BME280;11469;49.024;8.246;2022-08-27T07:37:23;100193.56;;;20.29;100.00
22605;BME280;11469;49.024;8.246;2022-08-27T07:39:49;100193.16;;;20.30;100.00
22605;BME280;11469;49.024;8.246;2022-08-27T07:42:14;100201.25;;;20.32;100.00
22605;BME280;11469;49.024;8.246;2022-08-27T07:44:58;100205.69;;;20.33;100.00
22605;BME280;11469;49.024;8.246;2022-08-27T07:47:23;100202.81;;;20.33;100.00
22605;BME280;11469;49.024;8.246;2022-08-27T07:49:49;100209.41;;;20.30;100.00
22605;BME280;11469;49.024;8.246;2022-08-27T07:52:14;100209.69;;;20.35;100.00
22605;BME280;11469;49.024;8.246;2022-08-27T07:54:40;100207.28;;;20.34;100.00
22605;BME280;11469;49.024;8.246;2022-08-27T07:57:06;100204.44;;;20.34;100.00
22605;BME280;11469;49.024;8.246;2022-08-27T07:59:32;100209.31;;;20.33;100.00
22605;BME280;11469;49.024;8.246;2022-08-27T08:01:57;100207.66;;;20.36;100.00
22605;BME280;11469;49.024;8.246;2022-08-27T08:04:23;100206.81;;;20.39;100.00
22605;BME280;11469;49.024;8.246;2022-08-27T08:06:51;100210.78;;;20.45;100.00
22605;BME280;11469;49.024;8.246;2022-08-27T08:09:17;100211.16;;;20.47;100.00
22605;BME280;11469;49.024;8.246;2022-08-27T08:11:43;100204.59;;;20.50;100.00
22605;BME280;11469;49.024;8.246;2022-08-27T08:14:09;100210.47;;;20.63;100.00
22605;BME280;11469;49.024;8.246;2022-08-27T08:16:35;100217.03;;;20.60;100.00
22605;BME280;11469;49.024;8.246;2022-08-27T08:19:00;100214.44;;;20.69;100.00
22605;BME280;11469;49.024;8.246;2022-08-27T08:21:26;100221.19;;;20.55;100.00
22605;BME280;11469;49.024;8.246;2022-08-27T08:23:52;100224.47;;;20.53;100.00
22605;BME280;11469;49.024;8.246;2022-08-27T08:26:17;100221.91;;;20.59;100.00
22605;BME280;11469;49.024;8.246;2022-08-27T08:28:42;100231.50;;;20.45;100.00
22605;BME280;11469;49.024;8.246;2022-08-27T08:31:08;100231.56;;;20.42;100.00
22605;BME280;11469;49.024;8.246;2022-08-27T08:33:34;100232.03;;;20.37;100.00
22605;BME280;11469;49.024;8.246;2022-08-27T08:36:11;100234.34;;;20.22;100.00
22605;BME280;11469;49.024;8.246;2022-08-27T08:38:38;100236.38;;;20.21;100.00
22605;BME280;11469;49.024;8.246;2022-08-27T08:41:06;100236.38;;;20.21;100.00
22605;BME280;11469;49.024;8.246;2022-08-27T08:43:42;100236.06;;;20.16;100.00
22605;BME280;11469;49.024;8.246;2022-08-27T08:46:32;100236.88;;;20.16;100.00
22605;BME280;11469;49.024;8.246;2022-08-27T08:49:02;100239.22;;;20.21;100.00
22605;BME280;11469;49.024;8.246;2022-08-27T08:51:35;100244.09;;;20.21;100.00
22605;BME280;11469;49.024;8.246;2022-08-27T08:54:08;100253.63;;;20.11;100.00
22605;BME280;11469;49.024;8.246;2022-08-27T08:57:14;100244.66;;;20.12;100.00
22605;BME280;11469;49.024;8.246;2022-08-27T08:59:48;100247.72;;;19.98;100.00
22605;BME280;11469;49.024;8.246;2022-08-27T09:02:17;100245.34;;;19.93;100.00
22605;BME280;11469;49.024;8.246;2022-08-27T09:04:43;100246.09;;;19.97;100.00
22605;BME280;11469;49.024;8.246;2022-08-27T09:07:22;100257.84;;;19.99;100.00
22605;BME280;11469;49.024;8.246;2022-08-27T09:12:37;100255.28;;;20.08;100.00
22605;BME280;11469;49.024;8.246;2022-08-27T09:15:13;100254.84;;;20.10;100.00
22605;BME280;11469;49.024;8.246;2022-08-27T09:17:39;100256.47;;;20.11;100.00
22605;BME280;11469;49.024;8.246;2022-08-27T09:20:07;100249.84;;;20.17;100.00
22605;BME280;11469;49.024;8.246;2022-08-27T09:25:25;100254.94;;;20.30;100.00
22605;BME280;11469;49.024;8.246;2022-08-27T09:27:55;100251.59;;;20.35;100.00
22605;BME280;11469;49.024;8.246;2022-08-27T09:30:24;100251.94;;;20.37;100.00
22605;BME280;11469;49.024;8.246;2022-08-27T09:33:00;100262.81;;;20.45;100.00
22605;BME280;11469;49.024;8.246;2022-08-27T09:35:35;100263.63;;;20.46;100.00
22605;BME280;11469;49.024;8.246;2022-08-27T09:38:03;100264.53;;;20.39;100.00
22605;BME280;11469;49.024;8.246;2022-08-27T09:43:07;100261.22;;;20.17;100.00
22605;BME280;11469;49.024;8.246;2022-08-27T09:45:34;100264.72;;;20.02;100.00
22605;BME280;11469;49.024;8.246;2022-08-27T09:48:07;100264.03;;;19.94;100.00
22605;BME280;11469;49.024;8.246;2022-08-27T09:50:55;100272.13;;;19.96;100.00
22605;BME280;11469;49.024;8.246;2022-08-27T09:56:07;100265.31;;;19.89;100.00
22605;BME280;11469;49.024;8.246;2022-08-27T10:01:26;100257.16;;;19.92;100.00
22605;BME280;11469;49.024;8.246;2022-08-27T10:04:11;100261.59;;;19.93;100.00
22605;BME280;11469;49.024;8.246;2022-08-27T10:06:44;100258.06;;;19.85;100.00
22605;BME280;11469;49.024;8.246;2022-08-27T10:09:21;100264.03;;;19.94;100.00
22605;BME280;11469;49.024;8.246;2022-08-27T10:14:31;100269.75;;;19.91;100.00
22605;BME280;11469;49.024;8.246;2022-08-27T10:17:08;100280.22;;;19.97;100.00
22605;BME280;11469;49.024;8.246;2022-08-27T10:22:25;100281.50;;;19.93;100.00
22605;BME280;11469;49.024;8.246;2022-08-27T10:31:05;100282.88;;;19.84;100.00
22605;BME280;11469;49.024;8.246;2022-08-27T10:41:45;100284.91;;;19.84;100.00
22605;BME280;11469;49.024;8.246;2022-08-27T10:47:30;100288.13;;;19.55;100.00
22605;BME280;11469;49.024;8.246;2022-08-27T10:50:14;100288.56;;;19.50;100.00
22605;BME280;11469;49.024;8.246;2022-08-27T10:52:51;100279.28;;;19.46;100.00
22605;BME280;11469;49.024;8.246;2022-08-27T10:55:22;100288.22;;;19.45;100.00
22605;BME280;11469;49.024;8.246;2022-08-27T11:00:59;100291.81;;;19.52;100.00
22605;BME280;11469;49.024;8.246;2022-08-27T11:03:43;100276.31;;;19.57;100.00
22605;BME280;11469;49.024;8.246;2022-08-27T11:08:59;100282.72;;;19.65;100.00
22605;BME280;11469;49.024;8.246;2022-08-27T11:11:33;100280.69;;;19.65;100.00
22605;BME280;11469;49.024;8.246;2022-08-27T11:14:04;100269.66;;;19.71;100.00
22605;BME280;11469;49.024;8.246;2022-08-27T11:16:36;100270.03;;;19.73;100.00
22605;BME280;11469;49.024;8.246;2022-08-27T11:19:20;100263.13;;;19.74;100.00
22605;BME280;11469;49.024;8.246;2022-08-27T11:24:39;100255.28;;;19.81;100.00
22605;BME280;11469;49.024;8.246;2022-08-27T11:27:08;100258.38;;;19.91;100.00
22605;BME280;11469;49.024;8.246;2022-08-27T11:38:33;100252.53;;;20.01;100.00
22605;BME280;11469;49.024;8.246;2022-08-27T11:41:30;100252.88;;;20.07;100.00
22605;BME280;11469;49.024;8.246;2022-08-27T11:43:59;100249.16;;;20.10;100.00
22605;BME280;11469;49.024;8.246;2022-08-27T11:46:41;100245.78;;;20.18;100.00
22605;BME280;11469;49.024;8.246;2022-08-27T11:49:07;100242.44;;;20.24;100.00
22605;BME280;11469;49.024;8.246;2022-08-27T11:51:37;100244.53;;;20.19;100.00
22605;BME280;11469;49.024;8.246;2022-08-27T11:54:20;100246.63;;;20.15;100.00
22605;BME280;11469;49.024;8.246;2022-08-27T11:56:47;100241.00;;;20.12;100.00
22605;BME280;11469;49.024;8.246;2022-08-27T12:01:55;100243.03;;;20.11;100.00
22605;BME280;11469;49.024;8.246;2022-08-27T12:06:59;100246.53;;;20.23;100.00
22605;BME280;11469;49.024;8.246;2022-08-27T12:09:26;100242.44;;;20.24;100.00
22605;BME280;11469;49.024;8.246;2022-08-27T12:14:46;100243.25;;;20.24;100.00
22605;BME280;11469;49.024;8.246;2022-08-27T12:17:28;100239.91;;;20.29;100.00
22605;BME280;11469;49.024;8.246;2022-08-27T12:20:07;100241.44;;;20.34;100.00
22605;BME280;11469;49.024;8.246;2022-08-27T12:23:03;100242.53;;;20.43;100.00
22605;BME280;11469;49.024;8.246;2022-08-27T12:26:17;100243.09;;;20.58;100.00
22605;BME280;11469;49.024;8.246;2022-08-27T12:28:44;100238.88;;;20.66;100.00
22605;BME280;11469;49.024;8.246;2022-08-27T12:31:10;100242.41;;;20.74;100.00
22605;BME280;11469;49.024;8.246;2022-08-27T12:33:41;100233.69;;;20.81;100.00
22605;BME280;11469;49.024;8.246;2022-08-27T12:36:21;100237.34;;;20.81;100.00
22605;BME280;11469;49.024;8.246;2022-08-27T12:38:52;100242.34;;;20.97;100.00
22605;BME280;11469;49.024;8.246;2022-08-27T12:41:29;100235.56;;;21.11;100.00
22605;BME280;11469;49.024;8.246;2022-08-27T12:44:10;100231.22;;;21.26;100.00
22605;BME280;11469;49.024;8.246;2022-08-27T12:49:25;100226.56;;;21.52;100.00
22605;BME280;11469;49.024;8.246;2022-08-27T12:51:54;100236.72;;;21.73;100.00
22605;BME280;11469;49.024;8.246;2022-08-27T12:54:41;100236.88;;;21.82;100.00
22605;BME280;11469;49.024;8.246;2022-08-27T12:57:19;100225.75;;;21.88;100.00
22605;BME280;11469;49.024;8.246;2022-08-27T13:00:07;100223.25;;;21.90;99.29
22605;BME280;11469;49.024;8.246;2022-08-27T13:05:47;100220.66;;;22.15;100.00
22605;BME280;11469;49.024;8.246;2022-08-27T13:08:34;100217.69;;;22.35;100.00
22605;BME280;11469;49.024;8.246;2022-08-27T13:11:20;100221.97;;;22.43;100.00
22605;BME280;11469;49.024;8.246;2022-08-27T13:13:49;100215.91;;;22.57;100.00
22605;BME280;11469;49.024;8.246;2022-08-27T13:16:19;100223.94;;;22.62;99.09
22605;BME280;11469;49.024;8.246;2022-08-27T13:18:49;100217.84;;;22.60;96.72
22605;BME280;11469;49.024;8.246;2022-08-27T13:21:22;100211.16;;;22.67;96.62
22605;BME280;11469;49.024;8.246;2022-08-27T13:26:25;100203.38;;;22.67;95.53
22605;BME280;11469;49.024;8.246;2022-08-27T13:28:54;100201.06;;;22.78;95.28
22605;BME280;11469;49.024;8.246;2022-08-27T13:31:21;100202.81;;;22.89;93.92
22605;BME280;11469;49.024;8.246;2022-08-27T13:33:47;100208.78;;;22.94;94.11
22605;BME280;11469;49.024;8.246;2022-08-27T13:36:26;100204.13;;;23.00;95.04
22605;BME280;11469;49.024;8.246;2022-08-27T13:38:52;100201.63;;;23.02;93.58
22605;BME280;11469;49.024;8.246;2022-08-27T13:41:28;100204.97;;;23.13;94.78
22605;BME280;11469;49.024;8.246;2022-08-27T13:43:54;100204.81;;;23.04;91.19
22605;BME280;11469;49.024;8.246;2022-08-27T13:46:26;100203.22;;;23.03;87.85
22605;BME280;11469;49.024;8.246;2022-08-27T13:48:55;100204.31;;;22.93;88.22
22605;BME280;11469;49.024;8.246;2022-08-27T13:51:30;100210.28;;;22.99;88.83
22605;BME280;11469;49.024;8.246;2022-08-27T13:53:56;100199.81;;;23.08;88.04
22605;BME280;11469;49.024;8.246;2022-08-27T13:59:09;100199.38;;;23.23;90.01
22605;BME280;11469;49.024;8.246;2022-08-27T14:01:35;100202.47;;;23.28;89.97
22605;BME280;11469;49.024;8.246;2022-08-27T14:04:05;100205.22;;;23.32;90.26
22605;BME280;11469;49.024;8.246;2022-08-27T14:06:40;100204.56;;;23.40;89.34
22605;BME280;11469;49.024;8.246;2022-08-27T14:09:10;100202.91;;;23.56;88.47